Wilson Avonmouth — 9HA2335 — position and weather

sailwx.info

Track history (hours):
 
Tides and Currents Weather Stations Pressure Air Temp Water Temp Dewpoint Dewpoint Depression Visibility Wind Speed Wind Dir Waves Ship Positions

Wilson Avonmouth

Last reported at 2018-Jun-20 01:58 UTC. Time now 2018-Jun-20 02:04 UTC.
Position N 51°54' E 004°28'.

Length 88 m; draft 3.1 m.

Type: Cargo ship. MMSI: 248367000.

Date/timePositionNaut miles runAvg speedWind from/ knotsBaromVisibWave heightAir tempDewpointWater temp
2018-Jun-20 01:58N 51°54' E 004°28'0 0.0
2018-Jun-20 01:28N 51°54' E 004°28'0 0.0
2018-Jun-20 00:58N 51°54' E 004°28'0 0.0
2018-Jun-20 00:28N 51°54' E 004°28'0 0.0
2018-Jun-19 23:58N 51°54' E 004°28'0 0.0
2018-Jun-19 23:28N 51°54' E 004°28'0 0.0
2018-Jun-19 22:58N 51°54' E 004°28'0 0.0
2018-Jun-19 22:28N 51°54' E 004°28'0 0.0
2018-Jun-19 21:58N 51°54' E 004°28'0 0.0
2018-Jun-19 21:28N 51°54' E 004°28'0 0.0
2018-Jun-19 20:58N 51°54' E 004°28'0 0.0
2018-Jun-19 20:28N 51°54' E 004°28'0 0.0
2018-Jun-19 19:58N 51°54' E 004°28'0 0.0
2018-Jun-19 19:28N 51°54' E 004°28'0 0.0
2018-Jun-19 18:58N 51°54' E 004°28'0 0.0
2018-Jun-19 18:28N 51°54' E 004°28'0 0.0
2018-Jun-19 17:58N 51°54' E 004°28'0 0.0
2018-Jun-19 17:28N 51°54' E 004°28'0 0.0
2018-Jun-19 16:58N 51°54' E 004°28'0 0.0
2018-Jun-19 16:28N 51°54' E 004°28'0 0.0
2018-Jun-19 15:58N 51°54' E 004°28'0 0.0
2018-Jun-19 15:28N 51°54' E 004°28'0 0.0
2018-Jun-19 14:58N 51°54' E 004°28'0 0.0
2018-Jun-19 14:28N 51°54' E 004°28'0 0.0
2018-Jun-19 13:58N 51°54' E 004°28'0 0.0
2018-Jun-19 13:30N 51°54' E 004°28'3 5.6
2018-Jun-19 13:00N 51°54' E 004°24'3 5.7
2018-Jun-19 12:30N 51°52' E 004°20'5 9.9
2018-Jun-19 12:00N 51°50' E 004°27'5 9.5
2018-Jun-19 11:30N 51°49' E 004°34'4 8.9
2018-Jun-19 11:00N 51°45' E 004°38'4 7.5
2018-Jun-19 10:31N 51°41' E 004°35'0 0.1
2018-Jun-19 06:56N 51°41' E 004°36'0 0.0
2018-Jun-19 06:23N 51°41' E 004°36'0 0.0
2018-Jun-19 05:43N 51°41' E 004°36'0 0.0
2018-Jun-19 04:13N 51°41' E 004°36'0 0.0
2018-Jun-19 03:59N 51°41' E 004°36'0 0.0
2018-Jun-19 03:28N 51°41' E 004°36'0 0.0
2018-Jun-19 02:52N 51°41' E 004°36'0 0.0
2018-Jun-19 02:22N 51°41' E 004°36'0 0.0
2018-Jun-19 01:41N 51°41' E 004°36'0 0.0
2018-Jun-19 01:22N 51°41' E 004°36'0 0.0
2018-Jun-19 00:58N 51°41' E 004°36'0 0.0
2018-Jun-19 00:22N 51°41' E 004°36'0 0.0
2018-Jun-18 23:59N 51°41' E 004°36'0 0.0
2018-Jun-18 23:22N 51°41' E 004°36'0 0.0
2018-Jun-18 22:58N 51°41' E 004°36'0 0.0
2018-Jun-18 22:25N 51°41' E 004°36'0 0.0
2018-Jun-18 21:53N 51°41' E 004°36'0 0.0
2018-Jun-18 21:28N 51°41' E 004°36'0 0.0
2018-Jun-18 20:58N 51°41' E 004°36'0 0.0
2018-Jun-18 20:28N 51°41' E 004°36'0 0.0
2018-Jun-18 16:35N 51°41' E 004°36'0 0.1
2018-Jun-18 16:28N 51°41' E 004°36'0 0.0
2018-Jun-18 15:52N 51°41' E 004°36'0 0.0
2018-Jun-18 15:13N 51°41' E 004°36'0 0.0
2018-Jun-18 14:52N 51°41' E 004°36'0 0.0
2018-Jun-18 14:29N 51°41' E 004°36'0 0.3
2018-Jun-18 14:00N 51°41' E 004°36'2 4.7
2018-Jun-18 13:30N 51°43' E 004°37'4 8.3
2018-Jun-18 13:00N 51°48' E 004°37'1 1.1
2018-Jun-18 12:28N 51°48' E 004°38'0 0.0
2018-Jun-18 12:00N 51°48' E 004°38'0 0.0
2018-Jun-18 11:31N 51°48' E 004°38'0 0.0
2018-Jun-18 11:00N 51°48' E 004°38'0 0.0
2018-Jun-18 10:25N 51°48' E 004°38'0 0.0
2018-Jun-18 09:50N 51°48' E 004°38'0 0.0
2018-Jun-18 09:28N 51°48' E 004°38'0 0.0
2018-Jun-18 08:55N 51°48' E 004°38'0 0.0
2018-Jun-18 08:25N 51°48' E 004°38'0 0.0
2018-Jun-18 08:00N 51°48' E 004°38'0 0.0
2018-Jun-18 07:30N 51°48' E 004°38'0 0.0
2018-Jun-18 07:01N 51°48' E 004°38'0 0.2
2018-Jun-18 06:30N 51°48' E 004°38'0 0.2
2018-Jun-18 06:00N 51°48' E 004°38'3 5.4
2018-Jun-18 05:31N 51°49' E 004°34'3 5.9
2018-Jun-18 05:00N 51°50' E 004°30'5 9.7
2018-Jun-18 04:30N 51°51' E 004°22'4 8.2
2018-Jun-18 04:00N 51°54' E 004°18'510.8
2018-Jun-18 03:31N 51°57' E 004°10'5 9.2
2018-Jun-18 03:01N 51°59' E 004°04'5 9.7
2018-Jun-18 02:30N 52°00' E 003°56'510.1
2018-Jun-18 02:00N 52°00' E 003°48'4 8.8
2018-Jun-18 01:30N 52°03' E 003°42'5 9.3
2018-Jun-18 01:00N 52°06' E 003°36'3 1.3
2018-Jun-17 22:48N 52°09' E 003°36'0 0.3
2018-Jun-17 22:30N 52°09' E 003°36'0 0.1
2018-Jun-17 22:00N 52°09' E 003°36'0 0.1
2018-Jun-17 21:27N 52°09' E 003°36'0 0.0
2018-Jun-17 20:57N 52°09' E 003°36'0 0.0
2018-Jun-17 20:30N 52°09' E 003°36'0 0.0
2018-Jun-17 19:57N 52°09' E 003°36'0 0.0
2018-Jun-17 19:18N 52°09' E 003°36'0 0.0
2018-Jun-17 19:00N 52°09' E 003°36'0 0.0
2018-Jun-17 18:30N 52°09' E 003°36'0 0.0
2018-Jun-17 18:00N 52°09' E 003°36'0 0.0
2018-Jun-17 17:30N 52°09' E 003°36'0 0.0
2018-Jun-17 16:54N 52°09' E 003°36'0 0.0
2018-Jun-17 16:21N 52°09' E 003°36'0 0.0
2018-Jun-17 15:51N 52°09' E 003°36'0 0.1
2018-Jun-17 15:27N 52°09' E 003°36'0 0.0
2018-Jun-17 15:00N 52°09' E 003°36'0 0.0
2018-Jun-17 14:30N 52°09' E 003°36'0 0.1
2018-Jun-17 13:57N 52°09' E 003°36'0 0.0
2018-Jun-17 09:39N 52°09' E 003°36'0 0.3
2018-Jun-17 09:18N 52°09' E 003°36'0 0.1
2018-Jun-17 08:57N 52°09' E 003°36'0 0.0
2018-Jun-17 08:09N 52°09' E 003°36'0 0.0
2018-Jun-17 08:00N 52°09' E 003°36'0 0.0
2018-Jun-17 07:24N 52°09' E 003°36'0 0.0
2018-Jun-17 06:39N 52°09' E 003°36'0 0.1
2018-Jun-17 06:30N 52°09' E 003°36'0 0.0
2018-Jun-17 05:57N 52°09' E 003°36'0 0.0
2018-Jun-17 05:24N 52°09' E 003°36'0 0.0
2018-Jun-17 04:57N 52°09' E 003°36'0 0.0
2018-Jun-17 04:30N 52°09' E 003°36'0 0.0
2018-Jun-17 03:57N 52°09' E 003°36'0 0.0
2018-Jun-17 03:27N 52°09' E 003°36'0 0.0
2018-Jun-17 03:00N 52°09' E 003°36'0 0.0
2018-Jun-17 02:27N 52°09' E 003°36'0 0.0
2018-Jun-17 01:51N 52°09' E 003°36'0 0.1
2018-Jun-17 01:27N 52°09' E 003°36'0 0.1
2018-Jun-16 22:06N 52°09' E 003°36'0 0.3
2018-Jun-16 21:42N 52°09' E 003°36'0 0.3
2018-Jun-16 21:30N 52°09' E 003°36'0 0.1
2018-Jun-16 21:00N 52°09' E 003°36'0 0.1
2018-Jun-16 20:30N 52°09' E 003°36'0 0.0
2018-Jun-16 20:00N 52°09' E 003°36'0 0.0
2018-Jun-16 19:27N 52°09' E 003°36'0 0.0
2018-Jun-16 19:00N 52°09' E 003°36'0 0.0
2018-Jun-16 18:27N 52°09' E 003°36'0 0.0
2018-Jun-16 17:57N 52°09' E 003°36'0 0.0
2018-Jun-16 17:27N 52°09' E 003°36'0 0.0
2018-Jun-16 16:57N 52°09' E 003°36'0 0.0
2018-Jun-16 16:24N 52°09' E 003°36'0 0.0
2018-Jun-16 15:54N 52°09' E 003°36'0 0.0
2018-Jun-16 15:24N 52°09' E 003°36'0 0.1
2018-Jun-16 15:00N 52°09' E 003°36'0 0.1
2018-Jun-16 14:27N 52°09' E 003°36'0 0.0
2018-Jun-16 13:51N 52°09' E 003°36'0 0.1
2018-Jun-16 13:30N 52°09' E 003°36'0 0.2
2018-Jun-16 13:00N 52°09' E 003°36'0 0.0
2018-Jun-16 11:51N 52°09' E 003°36'0 0.0
2018-Jun-16 10:48N 52°09' E 003°36'0 0.1
2018-Jun-16 10:30N 52°09' E 003°36'0 0.1
2018-Jun-16 09:42N 52°09' E 003°36'0 0.3
2018-Jun-16 09:24N 52°09' E 003°36'0 0.1
2018-Jun-16 08:54N 52°09' E 003°36'0 0.2
2018-Jun-16 08:12N 52°09' E 003°36'0 0.0
2018-Jun-16 08:00N 52°09' E 003°36'0 0.0
2018-Jun-16 07:30N 52°09' E 003°36'0 0.0
2018-Jun-16 06:57N 52°09' E 003°36'0 0.0
2018-Jun-16 06:27N 52°09' E 003°36'0 0.0
2018-Jun-16 06:00N 52°09' E 003°36'0 0.0
2018-Jun-16 05:27N 52°09' E 003°36'0 0.0
2018-Jun-16 04:57N 52°09' E 003°36'0 0.0
2018-Jun-16 04:27N 52°09' E 003°36'0 0.0
2018-Jun-16 04:00N 52°09' E 003°36'0 0.0
2018-Jun-16 03:30N 52°09' E 003°36'0 0.0
2018-Jun-16 02:57N 52°09' E 003°36'0 0.1
2018-Jun-16 02:24N 52°09' E 003°36'0 0.0
2018-Jun-16 02:00N 52°09' E 003°36'0 0.2
2018-Jun-16 01:27N 52°09' E 003°36'0 0.1
2018-Jun-16 00:57N 52°09' E 003°36'0 0.0
2018-Jun-16 00:30N 52°09' E 003°36'0 0.0
2018-Jun-16 00:00N 52°09' E 003°36'0 0.0
2018-Jun-15 23:27N 52°09' E 003°36'0 0.0
2018-Jun-15 23:00N 52°09' E 003°36'0 0.0
2018-Jun-15 22:24N 52°09' E 003°36'0 0.0
2018-Jun-15 21:48N 52°09' E 003°36'0 0.0
2018-Jun-15 21:21N 52°09' E 003°36'0 0.2
2018-Jun-15 21:00N 52°09' E 003°36'3 5.4
2018-Jun-15 20:30N 52°07' E 003°32'5 9.9
2018-Jun-15 20:00N 52°10' E 003°25'510.1
2018-Jun-15 19:30N 52°13' E 003°18'510.3
2018-Jun-15 19:00N 52°16' E 003°11'510.1
2018-Jun-15 18:30N 52°19' E 003°04'5 9.9
2018-Jun-15 18:00N 52°21' E 002°58'5 9.5
2018-Jun-15 17:29N 52°24' E 002°51'5 9.3
2018-Jun-15 17:00N 52°27' E 002°45'5 9.2
2018-Jun-15 16:30N 52°30' E 002°40'4 9.1
2018-Jun-15 16:00N 52°33' E 002°34'4 8.9
2018-Jun-15 15:30N 52°35' E 002°28'4 8.7
2018-Jun-15 15:00N 52°38' E 002°22'4 8.6
2018-Jun-15 14:30N 52°41' E 002°17'4 8.3
2018-Jun-15 14:00N 52°44' E 002°12'4 8.6
2018-Jun-15 13:30N 52°47' E 002°07'4 8.5
2018-Jun-15 12:59N 52°50' E 002°03'4 9.2
2018-Jun-15 12:30N 52°54' E 001°58'5 9.5
2018-Jun-15 12:00N 52°57' E 001°52'5 9.7
2018-Jun-15 11:30N 52°60' E 001°45'510.2
2018-Jun-15 11:00N 53°03' E 001°39'510.9
2018-Jun-15 10:30N 53°06' E 001°32'611.2
2018-Jun-15 10:00N 53°10' E 001°25'611.4
2018-Jun-15 09:30N 53°14' E 001°18'611.4
2018-Jun-15 09:00N 53°19' E 001°12'611.3
2018-Jun-15 08:28N 53°24' E 001°07'3911.7
2018-Jun-15 05:07N 53°56' E 000°30'212.3
2018-Jun-15 04:59N 53°58' E 000°28'612.5
2018-Jun-15 04:30N 54°03' E 000°23'612.5
2018-Jun-15 04:00N 54°08' E 000°17'612.3
2018-Jun-15 03:30N 54°13' E 000°11'612.2
2018-Jun-15 03:00N 54°18' E 000°06'611.7
2018-Jun-15 02:30N 54°23' E 000°00'611.4
2018-Jun-15 02:00N 54°28' W 000°05'510.9
2018-Jun-15 01:30N 54°33' W 000°10'510.5
2018-Jun-15 01:00N 54°37' W 000°15'66 9.5
2018-Jun-14 18:06N 55°32' W 001°19'211.3
2018-Jun-14 17:55N 55°34' W 001°21'511.6
2018-Jun-14 17:30N 55°38' W 001°25'611.9
2018-Jun-14 17:00N 55°42' W 001°33'611.5
2018-Jun-14 16:30N 55°46' W 001°40'611.8
2018-Jun-14 16:00N 55°50' W 001°47'611.8
2018-Jun-14 15:30N 55°54' W 001°54'611.7
2018-Jun-14 14:59N 55°59' W 002°02'54 8.2
2018-Jun-14 08:24N 56°53' W 002°04'7 5.4
2018-Jun-14 07:06N 56°59' W 001°59'1 5.1
2018-Jun-14 07:00N 56°60' W 001°58'3 5.5
2018-Jun-14 06:25N 57°02' W 001°54'2 6.0
2018-Jun-14 06:00N 57°04' W 001°52'3 5.4
2018-Jun-14 05:29N 57°06' W 001°49'3 5.6
2018-Jun-14 05:00N 57°09' W 001°46'3 5.7
2018-Jun-14 04:30N 57°11' W 001°43'4 5.4
2018-Jun-14 03:49N 57°14' W 001°39'84 8.5
2018-Jun-13 17:56N 58°30' W 002°47'410.1
2018-Jun-13 17:30N 58°33' W 002°51'510.6
2018-Jun-13 17:00N 58°38' W 002°57'5 9.3
2018-Jun-13 16:30N 58°41' W 003°03'3 6.8
2018-Jun-13 16:00N 58°43' W 003°08'3 6.5
2018-Jun-13 15:30N 58°43' W 003°14'2 4.1
2018-Jun-13 15:00N 58°43' W 003°18'3 5.7
2018-Jun-13 14:29N 58°44' W 003°24'6 7.6
2018-Jun-13 13:43N 58°47' W 003°34'  
Track history (hours):
 
Tides and Currents Weather Stations Pressure Air Temp Water Temp Dewpoint Dewpoint Depression Visibility Wind Speed Wind Dir Waves Ship Positions

Wilson Avonmouth

Last reported at 2018-Jun-20 01:58 UTC. Time now 2018-Jun-20 02:04 UTC.
Position N 51°54' E 004°28'.

Length 88 m; draft 3.1 m.

Type: Cargo ship. MMSI: 248367000.

Date/timePositionNaut miles runAvg speedWind from/ knotsBaromVisibWave heightAir tempDewpointWater temp
2018-Jun-20 01:58N 51°54' E 004°28'0 0.0
2018-Jun-20 01:28N 51°54' E 004°28'0 0.0
2018-Jun-20 00:58N 51°54' E 004°28'0 0.0
2018-Jun-20 00:28N 51°54' E 004°28'0 0.0
2018-Jun-19 23:58N 51°54' E 004°28'0 0.0
2018-Jun-19 23:28N 51°54' E 004°28'0 0.0
2018-Jun-19 22:58N 51°54' E 004°28'0 0.0
2018-Jun-19 22:28N 51°54' E 004°28'0 0.0
2018-Jun-19 21:58N 51°54' E 004°28'0 0.0
2018-Jun-19 21:28N 51°54' E 004°28'0 0.0
2018-Jun-19 20:58N 51°54' E 004°28'0 0.0
2018-Jun-19 20:28N 51°54' E 004°28'0 0.0
2018-Jun-19 19:58N 51°54' E 004°28'0 0.0
2018-Jun-19 19:28N 51°54' E 004°28'0 0.0
2018-Jun-19 18:58N 51°54' E 004°28'0 0.0
2018-Jun-19 18:28N 51°54' E 004°28'0 0.0
2018-Jun-19 17:58N 51°54' E 004°28'0 0.0
2018-Jun-19 17:28N 51°54' E 004°28'0 0.0
2018-Jun-19 16:58N 51°54' E 004°28'0 0.0
2018-Jun-19 16:28N 51°54' E 004°28'0 0.0
2018-Jun-19 15:58N 51°54' E 004°28'0 0.0
2018-Jun-19 15:28N 51°54' E 004°28'0 0.0
2018-Jun-19 14:58N 51°54' E 004°28'0 0.0
2018-Jun-19 14:28N 51°54' E 004°28'0 0.0
2018-Jun-19 13:58N 51°54' E 004°28'0 0.0
2018-Jun-19 13:30N 51°54' E 004°28'3 5.6
2018-Jun-19 13:00N 51°54' E 004°24'3 5.7
2018-Jun-19 12:30N 51°52' E 004°20'5 9.9
2018-Jun-19 12:00N 51°50' E 004°27'5 9.5
2018-Jun-19 11:30N 51°49' E 004°34'4 8.9
2018-Jun-19 11:00N 51°45' E 004°38'4 7.5
2018-Jun-19 10:31N 51°41' E 004°35'0 0.1
2018-Jun-19 06:56N 51°41' E 004°36'0 0.0
2018-Jun-19 06:23N 51°41' E 004°36'0 0.0
2018-Jun-19 05:43N 51°41' E 004°36'0 0.0
2018-Jun-19 04:13N 51°41' E 004°36'0 0.0
2018-Jun-19 03:59N 51°41' E 004°36'0 0.0
2018-Jun-19 03:28N 51°41' E 004°36'0 0.0
2018-Jun-19 02:52N 51°41' E 004°36'0 0.0
2018-Jun-19 02:22N 51°41' E 004°36'0 0.0
2018-Jun-19 01:41N 51°41' E 004°36'0 0.0
2018-Jun-19 01:22N 51°41' E 004°36'0 0.0
2018-Jun-19 00:58N 51°41' E 004°36'0 0.0
2018-Jun-19 00:22N 51°41' E 004°36'0 0.0
2018-Jun-18 23:59N 51°41' E 004°36'0 0.0
2018-Jun-18 23:22N 51°41' E 004°36'0 0.0
2018-Jun-18 22:58N 51°41' E 004°36'0 0.0
2018-Jun-18 22:25N 51°41' E 004°36'0 0.0
2018-Jun-18 21:53N 51°41' E 004°36'0 0.0
2018-Jun-18 21:28N 51°41' E 004°36'0 0.0
2018-Jun-18 20:58N 51°41' E 004°36'0 0.0
2018-Jun-18 20:28N 51°41' E 004°36'0 0.0
2018-Jun-18 16:35N 51°41' E 004°36'0 0.1
2018-Jun-18 16:28N 51°41' E 004°36'0 0.0
2018-Jun-18 15:52N 51°41' E 004°36'0 0.0
2018-Jun-18 15:13N 51°41' E 004°36'0 0.0
2018-Jun-18 14:52N 51°41' E 004°36'0 0.0
2018-Jun-18 14:29N 51°41' E 004°36'0 0.3
2018-Jun-18 14:00N 51°41' E 004°36'2 4.7
2018-Jun-18 13:30N 51°43' E 004°37'4 8.3
2018-Jun-18 13:00N 51°48' E 004°37'1 1.1
2018-Jun-18 12:28N 51°48' E 004°38'0 0.0
2018-Jun-18 12:00N 51°48' E 004°38'0 0.0
2018-Jun-18 11:31N 51°48' E 004°38'0 0.0
2018-Jun-18 11:00N 51°48' E 004°38'0 0.0
2018-Jun-18 10:25N 51°48' E 004°38'0 0.0
2018-Jun-18 09:50N 51°48' E 004°38'0 0.0
2018-Jun-18 09:28N 51°48' E 004°38'0 0.0
2018-Jun-18 08:55N 51°48' E 004°38'0 0.0
2018-Jun-18 08:25N 51°48' E 004°38'0 0.0
2018-Jun-18 08:00N 51°48' E 004°38'0 0.0
2018-Jun-18 07:30N 51°48' E 004°38'0 0.0
2018-Jun-18 07:01N 51°48' E 004°38'0 0.2
2018-Jun-18 06:30N 51°48' E 004°38'0 0.2
2018-Jun-18 06:00N 51°48' E 004°38'3 5.4
2018-Jun-18 05:31N 51°49' E 004°34'3 5.9
2018-Jun-18 05:00N 51°50' E 004°30'5 9.7
2018-Jun-18 04:30N 51°51' E 004°22'4 8.2
2018-Jun-18 04:00N 51°54' E 004°18'510.8
2018-Jun-18 03:31N 51°57' E 004°10'5 9.2
2018-Jun-18 03:01N 51°59' E 004°04'5 9.7
2018-Jun-18 02:30N 52°00' E 003°56'510.1
2018-Jun-18 02:00N 52°00' E 003°48'4 8.8
2018-Jun-18 01:30N 52°03' E 003°42'5 9.3
2018-Jun-18 01:00N 52°06' E 003°36'3 1.3
2018-Jun-17 22:48N 52°09' E 003°36'0 0.3
2018-Jun-17 22:30N 52°09' E 003°36'0 0.1
2018-Jun-17 22:00N 52°09' E 003°36'0 0.1
2018-Jun-17 21:27N 52°09' E 003°36'0 0.0
2018-Jun-17 20:57N 52°09' E 003°36'0 0.0
2018-Jun-17 20:30N 52°09' E 003°36'0 0.0
2018-Jun-17 19:57N 52°09' E 003°36'0 0.0
2018-Jun-17 19:18N 52°09' E 003°36'0 0.0
2018-Jun-17 19:00N 52°09' E 003°36'0 0.0
2018-Jun-17 18:30N 52°09' E 003°36'0 0.0
2018-Jun-17 18:00N 52°09' E 003°36'0 0.0
2018-Jun-17 17:30N 52°09' E 003°36'0 0.0
2018-Jun-17 16:54N 52°09' E 003°36'0 0.0
2018-Jun-17 16:21N 52°09' E 003°36'0 0.0
2018-Jun-17 15:51N 52°09' E 003°36'0 0.1
2018-Jun-17 15:27N 52°09' E 003°36'0 0.0
2018-Jun-17 15:00N 52°09' E 003°36'0 0.0
2018-Jun-17 14:30N 52°09' E 003°36'0 0.1
2018-Jun-17 13:57N 52°09' E 003°36'0 0.0
2018-Jun-17 09:39N 52°09' E 003°36'0 0.3
2018-Jun-17 09:18N 52°09' E 003°36'0 0.1
2018-Jun-17 08:57N 52°09' E 003°36'0 0.0
2018-Jun-17 08:09N 52°09' E 003°36'0 0.0
2018-Jun-17 08:00N 52°09' E 003°36'0 0.0
2018-Jun-17 07:24N 52°09' E 003°36'0 0.0
2018-Jun-17 06:39N 52°09' E 003°36'0 0.1
2018-Jun-17 06:30N 52°09' E 003°36'0 0.0
2018-Jun-17 05:57N 52°09' E 003°36'0 0.0
2018-Jun-17 05:24N 52°09' E 003°36'0 0.0
2018-Jun-17 04:57N 52°09' E 003°36'0 0.0
2018-Jun-17 04:30N 52°09' E 003°36'0 0.0
2018-Jun-17 03:57N 52°09' E 003°36'0 0.0
2018-Jun-17 03:27N 52°09' E 003°36'0 0.0
2018-Jun-17 03:00N 52°09' E 003°36'0 0.0
2018-Jun-17 02:27N 52°09' E 003°36'0 0.0
2018-Jun-17 01:51N 52°09' E 003°36'0 0.1
2018-Jun-17 01:27N 52°09' E 003°36'0 0.1
2018-Jun-16 22:06N 52°09' E 003°36'0 0.3
2018-Jun-16 21:42N 52°09' E 003°36'0 0.3
2018-Jun-16 21:30N 52°09' E 003°36'0 0.1
2018-Jun-16 21:00N 52°09' E 003°36'0 0.1
2018-Jun-16 20:30N 52°09' E 003°36'0 0.0
2018-Jun-16 20:00N 52°09' E 003°36'0 0.0
2018-Jun-16 19:27N 52°09' E 003°36'0 0.0
2018-Jun-16 19:00N 52°09' E 003°36'0 0.0
2018-Jun-16 18:27N 52°09' E 003°36'0 0.0
2018-Jun-16 17:57N 52°09' E 003°36'0 0.0
2018-Jun-16 17:27N 52°09' E 003°36'0 0.0
2018-Jun-16 16:57N 52°09' E 003°36'0 0.0
2018-Jun-16 16:24N 52°09' E 003°36'0 0.0
2018-Jun-16 15:54N 52°09' E 003°36'0 0.0
2018-Jun-16 15:24N 52°09' E 003°36'0 0.1
2018-Jun-16 15:00N 52°09' E 003°36'0 0.1
2018-Jun-16 14:27N 52°09' E 003°36'0 0.0
2018-Jun-16 13:51N 52°09' E 003°36'0 0.1
2018-Jun-16 13:30N 52°09' E 003°36'0 0.2
2018-Jun-16 13:00N 52°09' E 003°36'0 0.0
2018-Jun-16 11:51N 52°09' E 003°36'0 0.0
2018-Jun-16 10:48N 52°09' E 003°36'0 0.1
2018-Jun-16 10:30N 52°09' E 003°36'0 0.1
2018-Jun-16 09:42N 52°09' E 003°36'0 0.3
2018-Jun-16 09:24N 52°09' E 003°36'0 0.1
2018-Jun-16 08:54N 52°09' E 003°36'0 0.2
2018-Jun-16 08:12N 52°09' E 003°36'0 0.0
2018-Jun-16 08:00N 52°09' E 003°36'0 0.0
2018-Jun-16 07:30N 52°09' E 003°36'0 0.0
2018-Jun-16 06:57N 52°09' E 003°36'0 0.0
2018-Jun-16 06:27N 52°09' E 003°36'0 0.0
2018-Jun-16 06:00N 52°09' E 003°36'0 0.0
2018-Jun-16 05:27N 52°09' E 003°36'0 0.0
2018-Jun-16 04:57N 52°09' E 003°36'0 0.0
2018-Jun-16 04:27N 52°09' E 003°36'0 0.0
2018-Jun-16 04:00N 52°09' E 003°36'0 0.0
2018-Jun-16 03:30N 52°09' E 003°36'0 0.0
2018-Jun-16 02:57N 52°09' E 003°36'0 0.1
2018-Jun-16 02:24N 52°09' E 003°36'0 0.0
2018-Jun-16 02:00N 52°09' E 003°36'0 0.2
2018-Jun-16 01:27N 52°09' E 003°36'0 0.1
2018-Jun-16 00:57N 52°09' E 003°36'0 0.0
2018-Jun-16 00:30N 52°09' E 003°36'0 0.0
2018-Jun-16 00:00N 52°09' E 003°36'0 0.0
2018-Jun-15 23:27N 52°09' E 003°36'0 0.0
2018-Jun-15 23:00N 52°09' E 003°36'0 0.0
2018-Jun-15 22:24N 52°09' E 003°36'0 0.0
2018-Jun-15 21:48N 52°09' E 003°36'0 0.0
2018-Jun-15 21:21N 52°09' E 003°36'0 0.2
2018-Jun-15 21:00N 52°09' E 003°36'3 5.4
2018-Jun-15 20:30N 52°07' E 003°32'5 9.9
2018-Jun-15 20:00N 52°10' E 003°25'510.1
2018-Jun-15 19:30N 52°13' E 003°18'510.3
2018-Jun-15 19:00N 52°16' E 003°11'510.1
2018-Jun-15 18:30N 52°19' E 003°04'5 9.9
2018-Jun-15 18:00N 52°21' E 002°58'5 9.5
2018-Jun-15 17:29N 52°24' E 002°51'5 9.3
2018-Jun-15 17:00N 52°27' E 002°45'5 9.2
2018-Jun-15 16:30N 52°30' E 002°40'4 9.1
2018-Jun-15 16:00N 52°33' E 002°34'4 8.9
2018-Jun-15 15:30N 52°35' E 002°28'4 8.7
2018-Jun-15 15:00N 52°38' E 002°22'4 8.6
2018-Jun-15 14:30N 52°41' E 002°17'4 8.3
2018-Jun-15 14:00N 52°44' E 002°12'4 8.6
2018-Jun-15 13:30N 52°47' E 002°07'4 8.5
2018-Jun-15 12:59N 52°50' E 002°03'4 9.2
2018-Jun-15 12:30N 52°54' E 001°58'5 9.5
2018-Jun-15 12:00N 52°57' E 001°52'5 9.7
2018-Jun-15 11:30N 52°60' E 001°45'510.2
2018-Jun-15 11:00N 53°03' E 001°39'510.9
2018-Jun-15 10:30N 53°06' E 001°32'611.2
2018-Jun-15 10:00N 53°10' E 001°25'611.4
2018-Jun-15 09:30N 53°14' E 001°18'611.4
2018-Jun-15 09:00N 53°19' E 001°12'611.3
2018-Jun-15 08:28N 53°24' E 001°07'3911.7
2018-Jun-15 05:07N 53°56' E 000°30'212.3
2018-Jun-15 04:59N 53°58' E 000°28'612.5
2018-Jun-15 04:30N 54°03' E 000°23'612.5
2018-Jun-15 04:00N 54°08' E 000°17'612.3
2018-Jun-15 03:30N 54°13' E 000°11'612.2
2018-Jun-15 03:00N 54°18' E 000°06'611.7
2018-Jun-15 02:30N 54°23' E 000°00'611.4
2018-Jun-15 02:00N 54°28' W 000°05'510.9
2018-Jun-15 01:30N 54°33' W 000°10'510.5
2018-Jun-15 01:00N 54°37' W 000°15'66 9.5
2018-Jun-14 18:06N 55°32' W 001°19'211.3
2018-Jun-14 17:55N 55°34' W 001°21'511.6
2018-Jun-14 17:30N 55°38' W 001°25'611.9
2018-Jun-14 17:00N 55°42' W 001°33'611.5
2018-Jun-14 16:30N 55°46' W 001°40'611.8
2018-Jun-14 16:00N 55°50' W 001°47'611.8
2018-Jun-14 15:30N 55°54' W 001°54'611.7
2018-Jun-14 14:59N 55°59' W 002°02'54 8.2
2018-Jun-14 08:24N 56°53' W 002°04'7 5.4
2018-Jun-14 07:06N 56°59' W 001°59'1 5.1
2018-Jun-14 07:00N 56°60' W 001°58'3 5.5
2018-Jun-14 06:25N 57°02' W 001°54'2 6.0
2018-Jun-14 06:00N 57°04' W 001°52'3 5.4
2018-Jun-14 05:29N 57°06' W 001°49'3 5.6
2018-Jun-14 05:00N 57°09' W 001°46'3 5.7
2018-Jun-14 04:30N 57°11' W 001°43'4 5.4
2018-Jun-14 03:49N 57°14' W 001°39'84 8.5
2018-Jun-13 17:56N 58°30' W 002°47'410.1
2018-Jun-13 17:30N 58°33' W 002°51'510.6
2018-Jun-13 17:00N 58°38' W 002°57'5 9.3
2018-Jun-13 16:30N 58°41' W 003°03'3 6.8
2018-Jun-13 16:00N 58°43' W 003°08'3 6.5
2018-Jun-13 15:30N 58°43' W 003°14'2 4.1
2018-Jun-13 15:00N 58°43' W 003°18'3 5.7
2018-Jun-13 14:29N 58°44' W 003°24'6 7.6
2018-Jun-13 13:43N 58°47' W 003°34'  

Dump ship's entire track history